createdAt,value
2019-01-31T00:00:59.488Z,27.07
2019-01-31T00:05:53.189Z,27.90
2019-01-31T00:11:01.065Z,26.47
2019-01-31T00:15:55.851Z,26.50
2019-01-31T00:20:46.725Z,26.33
2019-01-31T00:25:45.462Z,26.87
2019-01-31T00:30:41.993Z,27.20
2019-01-31T00:35:37.855Z,25.90
2019-01-31T00:40:29.670Z,28.05
2019-01-31T00:45:20.541Z,27.40
2019-01-31T00:55:41.601Z,32.08
2019-01-31T01:00:40.509Z,27.33
2019-01-31T01:11:03.488Z,32.85
2019-01-31T01:21:19.277Z,32.15
2019-01-31T01:26:27.124Z,25.63
2019-01-31T01:31:24.378Z,26.30
2019-01-31T01:36:16.061Z,33.03
2019-01-31T01:41:16.213Z,29.25
2019-01-31T01:46:15.118Z,26.43
2019-01-31T01:51:26.967Z,26.60
2019-01-31T01:56:19.427Z,24.97
2019-01-31T02:01:23.057Z,25.17
2019-01-31T02:06:20.007Z,25.27
2019-01-31T02:11:22.729Z,25.63
2019-01-31T02:16:20.910Z,26.47
2019-01-31T02:21:12.740Z,25.57
2019-01-31T02:26:05.611Z,26.47
2019-01-31T02:31:10.537Z,31.52
2019-01-31T02:36:19.417Z,29.92
2019-01-31T02:41:13.246Z,24.40
2019-01-31T02:46:08.893Z,25.67
2019-01-31T02:51:06.590Z,24.20
2019-01-31T02:56:00.239Z,23.90
2019-01-31T03:00:59.926Z,23.80
2019-01-31T03:11:10.590Z,28.92
2019-01-31T03:21:54.153Z,28.77
2019-01-31T03:26:49.409Z,24.53
2019-01-31T03:31:49.639Z,28.75
2019-01-31T03:36:51.718Z,23.63
2019-01-31T03:41:42.692Z,24.17
2019-01-31T03:46:33.601Z,21.93
2019-01-31T03:51:27.323Z,23.90
2019-01-31T03:56:21.996Z,21.03
2019-01-31T04:01:22.171Z,22.20
2019-01-31T04:06:13.879Z,21.20
2019-01-31T04:11:04.786Z,21.87
2019-01-31T04:15:55.730Z,23.12
2019-01-31T04:20:46.654Z,21.30
2019-01-31T04:25:38.299Z,25.23
2019-01-31T04:30:29.939Z,21.47
2019-01-31T04:35:21.650Z,20.83
2019-01-31T04:40:12.550Z,21.10
2019-01-31T04:45:03.453Z,20.60
2019-01-31T04:49:54.394Z,19.67
2019-01-31T04:54:45.308Z,19.60
2019-01-31T04:59:36.211Z,20.00
2019-01-31T05:04:27.138Z,20.70
2019-01-31T05:09:18.108Z,19.70
2019-01-31T05:14:09.805Z,19.80
2019-01-31T05:19:00.714Z,23.92
2019-01-31T05:23:51.655Z,21.30
2019-01-31T05:28:42.654Z,20.70
2019-01-31T05:33:33.579Z,20.13
2019-01-31T05:38:24.474Z,19.80
2019-01-31T05:43:15.439Z,19.40
2019-01-31T05:48:06.342Z,20.43
2019-01-31T05:52:57.252Z,19.40
2019-01-31T05:57:48.155Z,18.57
2019-01-31T06:02:39.091Z,18.63
2019-01-31T06:07:30.000Z,18.50
2019-01-31T06:12:20.915Z,19.48
2019-01-31T06:17:11.820Z,17.47
2019-01-31T06:22:02.765Z,17.57
2019-01-31T06:26:53.679Z,17.90
2019-01-31T06:31:44.564Z,18.10
2019-01-31T06:36:35.533Z,18.77
2019-01-31T06:41:26.424Z,18.60
2019-01-31T06:46:17.328Z,16.77
2019-01-31T06:51:08.240Z,17.87
2019-01-31T06:55:59.198Z,15.77
2019-01-31T07:00:50.110Z,16.98
2019-01-31T07:05:41.018Z,17.00
2019-01-31T07:10:31.922Z,20.33
2019-01-31T07:15:22.808Z,16.43
2019-01-31T07:20:15.420Z,16.90
2019-01-31T07:25:06.341Z,16.03
2019-01-31T07:29:57.236Z,15.60
2019-01-31T07:34:48.133Z,16.53
2019-01-31T07:39:39.830Z,14.27
2019-01-31T07:44:30.745Z,14.70
2019-01-31T07:49:21.649Z,14.87
2019-01-31T07:54:12.577Z,16.57
2019-01-31T07:59:03.474Z,19.05
2019-01-31T08:04:02.237Z,17.80
2019-01-31T08:08:45.333Z,14.23
2019-01-31T08:13:36.236Z,15.17
2019-01-31T08:18:27.217Z,14.70
2019-01-31T08:23:18.867Z,13.50
2019-01-31T08:28:09.775Z,14.70
2019-01-31T08:33:00.733Z,14.20
2019-01-31T08:37:51.735Z,14.80
2019-01-31T08:42:42.685Z,12.80
2019-01-31T08:47:33.577Z,14.40
2019-01-31T08:52:24.512Z,15.03
2019-01-31T08:57:15.499Z,16.00
2019-01-31T09:02:06.415Z,13.67
2019-01-31T09:06:57.326Z,14.73
2019-01-31T09:11:49.047Z,13.73
2019-01-31T09:16:39.949Z,14.33
2019-01-31T09:21:30.842Z,15.00
2019-01-31T09:26:38.674Z,14.90
2019-01-31T09:31:35.593Z,15.17
2019-01-31T09:36:35.831Z,13.83
2019-01-31T09:41:30.551Z,14.40
2019-01-31T09:51:47.210Z,15.80
2019-01-31T09:56:40.107Z,14.50
2019-01-31T10:07:07.067Z,15.60
2019-01-31T10:12:00.874Z,12.23
2019-01-31T10:22:25.881Z,14.20
2019-01-31T10:27:22.809Z,12.57
2019-01-31T10:32:15.593Z,13.00
2019-01-31T10:37:12.751Z,15.65
2019-01-31T10:42:11.727Z,14.52
2019-01-31T10:47:18.500Z,13.30
2019-01-31T10:52:10.276Z,13.50
2019-01-31T11:02:47.866Z,14.40
2019-01-31T11:13:12.887Z,15.38
2019-01-31T11:18:06.815Z,13.07
2019-01-31T11:22:59.679Z,12.17
2019-01-31T11:27:55.570Z,15.50
2019-01-31T11:32:54.222Z,14.57
2019-01-31T11:37:48.922Z,12.97
2019-01-31T11:42:48.797Z,12.37
2019-01-31T11:47:43.234Z,10.83
2019-01-31T11:52:40.409Z,11.10
2019-01-31T11:57:33.271Z,10.20
2019-01-31T12:02:24.183Z,12.17
2019-01-31T12:07:15.081Z,11.20
2019-01-31T12:12:06.045Z,10.85
2019-01-31T12:16:56.949Z,9.60
2019-01-31T12:21:47.857Z,9.30
2019-01-31T12:26:38.784Z,8.60
2019-01-31T12:31:29.694Z,8.17
2019-01-31T12:36:20.606Z,8.50
2019-01-31T12:41:11.542Z,8.60
2019-01-31T12:46:02.476Z,9.20
2019-01-31T12:50:53.381Z,8.80
2019-01-31T12:55:44.277Z,8.10
2019-01-31T13:00:35.179Z,9.20
2019-01-31T13:05:26.898Z,7.33
2019-01-31T13:10:17.789Z,6.77
2019-01-31T13:15:08.710Z,6.40
2019-01-31T13:19:59.601Z,6.50
2019-01-31T13:24:50.570Z,7.17
2019-01-31T13:29:41.489Z,5.57
2019-01-31T13:34:32.393Z,7.13
2019-01-31T13:39:24.043Z,7.70
2019-01-31T13:44:14.962Z,6.43
2019-01-31T13:49:05.967Z,6.20
2019-01-31T13:53:56.871Z,5.70
2019-01-31T13:58:47.778Z,6.23
2019-01-31T14:03:38.676Z,6.60
2019-01-31T14:08:29.565Z,6.43
2019-01-31T14:13:21.209Z,6.60
2019-01-31T14:18:12.115Z,7.20
2019-01-31T14:23:03.766Z,6.10
2019-01-31T14:27:55.422Z,5.57
2019-01-31T14:32:46.377Z,4.90
2019-01-31T14:37:37.327Z,5.23
2019-01-31T14:42:28.976Z,5.07
2019-01-31T14:47:20.614Z,4.80
2019-01-31T14:52:12.281Z,5.70
2019-01-31T14:57:03.191Z,5.75
2019-01-31T15:01:54.084Z,5.27
2019-01-31T15:06:45.731Z,4.80
2019-01-31T15:11:36.685Z,5.30
2019-01-31T15:16:27.661Z,4.93
2019-01-31T15:21:19.310Z,5.00
2019-01-31T15:26:10.266Z,4.60
2019-01-31T15:31:01.186Z,4.80
2019-01-31T15:35:52.131Z,5.30
2019-01-31T15:40:43.125Z,5.80
2019-01-31T15:45:34.028Z,5.90
2019-01-31T15:50:24.966Z,5.53
2019-01-31T15:55:16.955Z,5.50
2019-01-31T16:00:15.790Z,5.90
2019-01-31T16:05:06.694Z,6.23
2019-01-31T16:09:57.689Z,6.00
2019-01-31T16:14:54.862Z,6.60
2019-01-31T16:19:39.510Z,6.67
2019-01-31T16:24:30.467Z,8.73
2019-01-31T16:29:21.494Z,8.33
2019-01-31T16:34:12.455Z,8.63
2019-01-31T16:39:03.402Z,9.20
2019-01-31T16:43:55.111Z,9.60
2019-01-31T16:48:46.024Z,9.20
2019-01-31T16:53:36.943Z,9.40
2019-01-31T16:58:27.855Z,8.70
2019-01-31T17:03:18.772Z,10.57
2019-01-31T17:08:09.702Z,10.50
2019-01-31T17:13:00.601Z,9.37
2019-01-31T17:17:51.485Z,8.60
2019-01-31T17:22:50.099Z,8.90
2019-01-31T17:27:40.993Z,8.30
2019-01-31T17:32:32.693Z,8.83
2019-01-31T17:37:23.613Z,9.17
2019-01-31T17:42:14.540Z,9.50
2019-01-31T17:47:05.428Z,11.10
2019-01-31T17:51:56.341Z,9.70
2019-01-31T17:56:47.281Z,11.93
2019-01-31T18:01:38.185Z,10.80
2019-01-31T18:06:29.136Z,10.20
2019-01-31T18:11:20.037Z,10.27
2019-01-31T18:16:10.957Z,10.90
2019-01-31T18:21:01.878Z,12.50
2019-01-31T18:25:52.790Z,10.30
2019-01-31T18:30:43.720Z,11.40
2019-01-31T18:35:34.625Z,12.32
2019-01-31T18:40:33.244Z,12.50
2019-01-31T18:45:25.623Z,13.38
2019-01-31T18:50:17.249Z,11.50
2019-01-31T18:55:08.142Z,11.27
2019-01-31T18:59:59.037Z,11.73
2019-01-31T19:04:49.943Z,11.80
2019-01-31T19:09:40.863Z,10.70
2019-01-31T19:14:31.766Z,10.33
2019-01-31T19:19:22.677Z,11.43
2019-01-31T19:24:14.313Z,11.73
2019-01-31T19:29:05.286Z,13.62
2019-01-31T19:33:56.341Z,13.75
2019-01-31T19:38:47.992Z,13.20
2019-01-31T19:43:39.648Z,12.47
2019-01-31T19:48:30.551Z,12.13
2019-01-31T19:53:21.453Z,11.80
2019-01-31T19:58:13.098Z,14.10
2019-01-31T20:03:04.796Z,13.73
2019-01-31T20:07:56.451Z,12.50
2019-01-31T20:12:47.357Z,14.17
2019-01-31T20:17:38.498Z,15.23
2019-01-31T20:22:30.136Z,17.50
2019-01-31T20:27:21.786Z,15.33
2019-01-31T20:32:12.703Z,13.90
2019-01-31T20:37:04.347Z,14.77
2019-01-31T20:41:56.008Z,14.57
2019-01-31T20:46:46.919Z,15.20
2019-01-31T20:51:37.817Z,15.40
2019-01-31T20:56:28.721Z,15.83
2019-01-31T21:01:20.386Z,14.40
2019-01-31T21:06:11.291Z,15.03
2019-01-31T21:11:02.200Z,16.07
2019-01-31T21:15:53.862Z,19.98
2019-01-31T21:20:44.824Z,17.00
2019-01-31T21:25:35.835Z,19.93
2019-01-31T21:30:26.835Z,16.93
2019-01-31T21:35:17.783Z,18.23
2019-01-31T21:40:10.615Z,17.83
2019-01-31T21:45:01.581Z,19.47
2019-01-31T21:49:52.587Z,19.30
2019-01-31T22:00:02.648Z,23.45
2019-01-31T22:04:53.776Z,20.27
2019-01-31T22:09:44.721Z,21.60
2019-01-31T22:14:35.792Z,20.70
2019-01-31T22:19:26.675Z,26.45
2019-01-31T22:24:17.682Z,24.23
2019-01-31T22:29:08.621Z,23.50
2019-01-31T22:33:59.628Z,22.10
2019-01-31T22:38:50.668Z,21.57
2019-01-31T22:43:42.402Z,22.17
2019-01-31T22:48:33.305Z,23.73
2019-01-31T22:53:24.236Z,22.80
2019-01-31T22:58:15.138Z,24.00
2019-01-31T23:03:06.059Z,23.57
2019-01-31T23:13:25.833Z,29.93
2019-01-31T23:18:16.748Z,27.40
2019-01-31T23:23:07.704Z,26.27
2019-01-31T23:27:58.647Z,25.30
2019-01-31T23:32:49.628Z,27.57
2019-01-31T23:37:40.558Z,25.37
2019-01-31T23:42:31.497Z,25.23
2019-01-31T23:47:22.509Z,26.93
2019-01-31T23:52:13.416Z,25.97
2019-01-31T23:57:04.345Z,29.33
